Flight Track Log - Related Links

Times and Time Zones

All times are in EDT time to prevent confusion due to time zone crossing. See the ASQ4530 flight status page for this flight to view local times or setup timezone preferences in your user account.

Time Position Orientation Groundspeed Altitude Reporting Facility
EDT Latitude Longitude Course Direction KTS MPH feet Rate Location/Type
Fri 06:30:07 PM 42.9667 -87.8833 324° Northwest 160 184 1,200  Level KMKE
Fri 06:31:25 PM 43.0167 -87.9333 257° West 232 267 3,800 2,000 Climbing KMKE
Fri 06:32:25 PM 43.0000 -88.0333 260° West 264 304 5,800 1,976 Climbing KMKE
Fri 06:34:09 PM 42.9783 -88.2006 262° West 286 329 9,200 1,939 Climbing Chicago Center
Fri 06:35:09 PM 42.9669 -88.3086 264° West 281 323 11,100 1,450 Climbing Chicago Center
Fri 06:36:09 PM 42.9575 -88.4222 261° West 293 337 12,100 850 Climbing Chicago Center
Fri 06:37:09 PM 42.9436 -88.5472 266° West 324 373 12,800 750 Climbing Chicago Center
Fri 06:38:09 PM 42.9361 -88.6806 268° West 352 405 13,600 800 Climbing Chicago Center
Fri 06:39:09 PM 42.9328 -88.8194 272° West 365 420 14,400 850 Climbing Chicago Center
Fri 06:40:09 PM 42.9356 -88.9614 274° West 370 426 15,300 800 Climbing Chicago Center
Fri 06:41:09 PM 42.9422 -89.1003 275° West 370 426 16,000 750 Climbing Chicago Center
Fri 06:42:09 PM 42.9506 -89.2392 277° West 370 426 16,800 800 Climbing Chicago Center
Fri 06:43:09 PM 42.9633 -89.3925 277° West 370 426 17,600 1,050 Climbing Chicago Center
Fri 06:44:09 PM 42.9756 -89.5314 269° West 365 420 18,900 1,333 Climbing Chicago Center
Fri 06:46:09 PM 42.9728 -89.7925 268° West 359 413 21,600 1,167 Climbing Chicago Center
Fri 06:47:09 PM 42.9703 -89.9003 272° West 353 406 22,400 900 Climbing Chicago Center
Fri 06:48:09 PM 42.9736 -90.0450 270° West 353 406 23,400 1,000 Climbing Chicago Center
Fri 06:49:09 PM 42.9728 -90.1783 262° West 348 400 24,400 1,050 Climbing Chicago Center
Fri 06:50:09 PM 42.9569 -90.3228 215° Southwest 348 400 25,500 1,000 Climbing Chicago Center
Fri 06:52:09 PM 42.8036 -90.4675 212° Southwest 359 413 27,400 967 Climbing Chicago Center
Fri 06:53:09 PM 42.7217 -90.5367 211° Southwest 353 406 28,400 950 Climbing Chicago Center
Fri 06:54:09 PM 42.6417 -90.6031 211° Southwest 348 400 29,300 950 Climbing Chicago Center
Fri 06:55:09 PM 42.5619 -90.6692 212° Southwest 343 395 30,300 950 Climbing Chicago Center
Fri 06:56:09 PM 42.4817 -90.7378 210° Southwest 343 395 31,200 950 Climbing Chicago Center
Fri 06:57:09 PM 42.3975 -90.8033 211° Southwest 343 395 32,200 950 Climbing Chicago Center
Fri 06:58:09 PM 42.3156 -90.8689 213° Southwest 343 395 33,100 800 Climbing Chicago Center
Fri 06:59:09 PM 42.2311 -90.9428 210° Southwest 343 395 33,800 600 Climbing Chicago Center
Fri 07:00:09 PM 42.1511 -91.0050 211° Southwest 348 400 34,300 550 Climbing Chicago Center
Fri 07:01:09 PM 42.0644 -91.0756 212° Southwest 348 400 34,900 600 Climbing Chicago Center
Fri 07:02:09 PM 41.9822 -91.1433 211° Southwest 354 407 35,500 550 Climbing Chicago Center
Fri 07:03:09 PM 41.8936 -91.2161 210° Southwest 361 415 36,000 250 Climbing Chicago Center
Fri 07:04:09 PM 41.8047 -91.2858 212° Southwest 372 428 36,000  Level Chicago Center
Fri 07:05:09 PM 41.7117 -91.3636 209° Southwest 385 443 36,000  Level Chicago Center
Fri 07:06:09 PM 41.6144 -91.4358 211° Southwest 396 456 36,000  Level Chicago Center
Fri 07:07:09 PM 41.5128 -91.5183 211° Southwest 412 474 36,000  Level Chicago Center
Fri 07:08:09 PM 41.4133 -91.5981 210° Southwest 418 481 36,000  Level Chicago Center
Fri 07:09:09 PM 41.3097 -91.6775 213° Southwest 425 489 36,000  Level Chicago Center
Fri 07:10:09 PM 41.2206 -91.7544 211° Southwest 433 498 36,000  Level Chicago Center
Fri 07:11:09 PM 41.1186 -91.8361 209° Southwest 433 498 36,000  Level Chicago Center
Fri 07:12:43 PM 40.9536 -91.9581 211° Southwest 443 510 36,000  Level Kansas City Center
Fri 07:13:43 PM 40.8492 -92.0414 210° Southwest 443 510 36,000  Level Kansas City Center
Fri 07:14:43 PM 40.7447 -92.1217 211° Southwest 437 503 36,000  Level Kansas City Center
Fri 07:15:43 PM 40.6400 -92.2044 211° Southwest 437 503 36,000  Level Kansas City Center
Fri 07:16:43 PM 40.5375 -92.2844 208° Southwest 437 503 36,000  Level Kansas City Center
Fri 07:17:43 PM 40.4244 -92.3642 210° Southwest 447 514 36,000  Level Kansas City Center
Fri 07:18:43 PM 40.3072 -92.4519 211° Southwest 447 514 36,000  Level Kansas City Center
Fri 07:19:43 PM 40.2044 -92.5339 211° Southwest 447 514 36,000  Level Kansas City Center
Fri 07:20:43 PM 40.1097 -92.6097 220° Southwest 442 509 36,000  Level Kansas City Center
Fri 07:21:43 PM 40.0175 -92.7125 220° Southwest 442 509 36,000  Level Kansas City Center
Fri 07:22:43 PM 39.9253 -92.8122 218° Southwest 442 509 36,000  Level Kansas City Center
Fri 07:23:43 PM 39.8289 -92.9117 219° Southwest 442 509 36,000  Level Kansas City Center
Fri 07:24:43 PM 39.7322 -93.0139 220° Southwest 442 509 36,000  Level Kansas City Center
Fri 07:25:43 PM 39.6356 -93.1181 217° Southwest 447 514 36,000  Level Kansas City Center
Fri 07:26:43 PM 39.5364 -93.2142 217° Southwest 447 514 36,000  Level Kansas City Center
Fri 07:27:43 PM 39.4353 -93.3128 219° Southwest 447 514 36,000  Level Kansas City Center
Fri 07:28:43 PM 39.3406 -93.4136 219° Southwest 447 514 36,000  Level Kansas City Center
Fri 07:29:43 PM 39.2433 -93.5144 218° Southwest 453 521 36,000  Level Kansas City Center
Fri 07:30:43 PM 39.1339 -93.6228 218° Southwest 453 521 36,000  Level Kansas City Center
Fri 07:31:43 PM 39.0344 -93.7231 219° Southwest 459 528 36,000  Level Kansas City Center
Fri 07:32:43 PM 38.9475 -93.8147 218° Southwest 459 528 36,000  Level Kansas City Center
Fri 07:33:43 PM 38.8519 -93.9117 218° Southwest 459 528 36,000  Level Kansas City Center
Fri 07:34:43 PM 38.7442 -94.0189 217° Southwest 459 528 36,000  Level Kansas City Center
Fri 07:35:43 PM 38.6403 -94.1206 219° Southwest 466 536 36,000  Level Kansas City Center
Fri 07:36:43 PM 38.5383 -94.2247 217° Southwest 460 529 36,000  Level Kansas City Center
Fri 07:37:43 PM 38.4469 -94.3125 217° Southwest 460 529 36,000  Level Kansas City Center
Fri 07:38:43 PM 38.3344 -94.4214 215° Southwest 463 533 36,000  Level Kansas City Center
Fri 07:39:43 PM 38.2281 -94.5167 207° Southwest 463 533 36,000  Level Kansas City Center
Fri 07:40:43 PM 38.1111 -94.5931 206° Southwest 469 540 36,000  Level Kansas City Center
Fri 07:41:43 PM 38.0047 -94.6589 207° Southwest 482 555 36,000  Level Kansas City Center
Fri 07:42:43 PM 37.8753 -94.7428 206° Southwest 477 549 36,000  Level Kansas City Center
Fri 07:43:43 PM 37.7583 -94.8161 205° Southwest 472 543 36,000  Level Kansas City Center
Fri 07:44:43 PM 37.6519 -94.8786 207° Southwest 477 549 36,000  Level Kansas City Center
Fri 07:45:43 PM 37.5306 -94.9564 207° Southwest 472 543 36,000  Level Kansas City Center
Fri 07:46:43 PM 37.4114 -95.0317 207° Southwest 472 543 36,000  Level Kansas City Center
Fri 07:47:43 PM 37.2922 -95.1092 207° Southwest 472 543 36,000  Level Kansas City Center
Fri 07:48:43 PM 37.1750 -95.1839 206° Southwest 472 543 36,000  Level Kansas City Center
Fri 07:49:43 PM 37.0556 -95.2581 207° Southwest 472 543 36,000  Level Kansas City Center
Fri 07:50:43 PM 36.9342 -95.3350 207° Southwest 472 543 36,000  Level Kansas City Center
Fri 07:51:43 PM 36.8125 -95.4114 207° Southwest 478 550 36,000  Level Kansas City Center
Fri 07:52:43 PM 36.6908 -95.4878 206° Southwest 478 550 36,000  Level Kansas City Center
Fri 07:53:43 PM 36.5672 -95.5636 206° Southwest 488 562 36,000  Level Kansas City Center
Fri 07:56:11 PM 36.2461 -95.7619 199° South 495 570 36,000  Level Fort Worth Center
Fri 07:57:11 PM 36.1258 -95.8131 196° South 504 580 36,000  Level Fort Worth Center
Fri 07:58:11 PM 35.9908 -95.8619 197° South 504 580 36,000  Level Fort Worth Center
Fri 07:59:11 PM 35.8581 -95.9106 196° South 499 574 36,000  Level Fort Worth Center
Fri 08:00:11 PM 35.7272 -95.9564 194° South 493 567 36,000  Level Fort Worth Center
Fri 08:01:11 PM 35.5819 -96.0022 196° South 493 567 36,000  Level Fort Worth Center
Fri 08:02:11 PM 35.4508 -96.0478 195° South 488 562 36,000  Level Fort Worth Center
Fri 08:03:11 PM 35.3200 -96.0906 196° South 488 562 36,000  Level Fort Worth Center
Fri 08:04:11 PM 35.2161 -96.1278 196° South 488 562 36,000  Level Fort Worth Center
Fri 08:05:11 PM 35.0769 -96.1781 195° South 488 562 36,000  Level Fort Worth Center
Fri 08:06:11 PM 34.9458 -96.2206 196° South 488 562 36,000  Level Fort Worth Center
Fri 08:07:11 PM 34.8169 -96.2653 196° South 488 562 36,000  Level Fort Worth Center
Fri 08:08:11 PM 34.6881 -96.3100 193° South 488 562 36,000 -100 Level Fort Worth Center
Fri 08:09:11 PM 34.5653 -96.3442 198° South 475 547 35,800 -550 Descending Fort Worth Center
Fri 08:10:11 PM 34.4175 -96.4014 196° South 481 554 34,900 -900 Descending Fort Worth Center
Fri 08:11:11 PM 34.2906 -96.4458 195° South 481 554 34,000 -450 Descending Fort Worth Center
Fri 08:12:11 PM 34.1658 -96.4872 196° South 474 545 34,000  Level Fort Worth Center
Fri 08:13:11 PM 34.0492 -96.5286 195° South 463 533 34,000  Level Fort Worth Center
Fri 08:14:11 PM 33.9222 -96.5700 195° South 463 533 34,000  Level Fort Worth Center
Fri 08:15:11 PM 33.7953 -96.6111 195° South 469 540 34,000  Level Fort Worth Center
Fri 08:16:11 PM 33.6639 -96.6522 182° South 480 552 34,000  Level Fort Worth Center
Fri 08:17:11 PM 33.5325 -96.6583 177° South 485 558 34,000  Level Fort Worth Center
Fri 08:18:11 PM 33.3989 -96.6497 177° South 479 551 34,000  Level Fort Worth Center
Fri 08:19:12 PM 33.2694 -96.6408 175° South 473 544 34,000  Level Fort Worth Center
Fri 08:20:11 PM 33.1567 -96.6294 178° South 468 539 34,000  Level Fort Worth Center
Fri 08:21:11 PM 33.0292 -96.6231 175° South 458 527 34,000 -200 Level Fort Worth Center
Fri 08:22:11 PM 32.9164 -96.6117 177° South 433 498 33,600 -900 Descending Fort Worth Center
Fri 08:23:11 PM 32.8036 -96.6053 176° South 414 476 32,200 -1,300 Descending Fort Worth Center
Fri 08:24:11 PM 32.6889 -96.5964 177° South 394 453 31,000 -600 Descending Fort Worth Center
Fri 08:25:11 PM 32.5906 -96.5897 177° South 365 420 31,000  Level Fort Worth Center
Fri 08:26:11 PM 32.4903 -96.5833 176° South 360 414 31,000  Level Fort Worth Center
Fri 08:27:11 PM 32.3858 -96.5744 177° South 367 422 31,000  Level Fort Worth Center
Fri 08:28:11 PM 32.2814 -96.5681 176° South 373 429 31,000  Level Fort Worth Center
Fri 08:29:11 PM 32.1750 -96.5592 177° South 385 443 31,000  Level Fort Worth Center
Fri 08:30:11 PM 32.0664 -96.5528 176° South 385 443 31,000  Level Fort Worth Center
Fri 08:31:11 PM 31.9703 -96.5439 177° South 390 449 31,000  Level Fort Worth Center
Fri 08:32:11 PM 31.8617 -96.5378 177° South 390 449 31,000  Level Fort Worth Center
Fri 08:33:47 PM 31.6772 -96.5256 177° South 383 441 31,000  Level Houston Center
Fri 08:34:47 PM 31.5669 -96.5178 170° South 396 456 31,000  Level Houston Center
Fri 08:35:47 PM 31.4697 -96.4983 154° Southeast 402 463 31,000 -700 Level Houston Center
Fri 08:36:47 PM 31.3675 -96.4400 150° Southeast 418 481 29,600 -1,450 Descending Houston Center
Fri 08:37:47 PM 31.2697 -96.3744 152° Southeast 418 481 28,100 -1,750 Descending Houston Center
Fri 08:38:47 PM 31.1678 -96.3117 151° Southeast 418 481 26,100 -2,250 Descending Houston Center
Fri 08:39:47 PM 31.0656 -96.2461 152° Southeast 418 481 23,600 -1,950 Descending Houston Center
Fri 08:40:47 PM 30.9492 -96.1731 152° Southeast 430 495 22,200 -2,000 Descending Houston Center
Fri 08:41:47 PM 30.8531 -96.1133 152° Southeast 418 481 19,600 -2,550 Descending Houston Center
Fri 08:42:47 PM 30.7531 -96.0508 153° Southeast 399 459 17,100 -2,400 Descending Houston Center
Fri 08:43:47 PM 30.6486 -95.9883 151° Southeast 407 468 14,800 -2,350 Descending Houston Center
Fri 08:44:47 PM 30.5506 -95.9264 152° Southeast 412 474 12,400 -1,400 Descending Houston Center
Fri 08:45:47 PM 30.4542 -95.8669 139° Southeast 398 458 12,000 -500 Descending Houston Center
Fri 08:46:47 PM 30.3772 -95.7892 138° Southeast 385 443 11,400 -900 Descending Houston Center
Fri 08:47:47 PM 30.3086 -95.7167 138° Southeast 358 412 10,200 -1,250 Descending Houston Center
Fri 08:48:47 PM 30.2417 -95.6467 136° Southeast 339 390 8,900 -1,450 Descending Houston Center
Fri 08:49:47 PM 30.1811 -95.5794 139° Southeast 324 373 7,300 -950 Descending Houston Center
Fri 08:50:47 PM 30.1222 -95.5197 104° East 298 343 7,000 -150 Descending Houston Center
Fri 08:51:47 PM 30.1039 -95.4350 88° East 271 312 7,000  Level Houston Center
Fri 08:52:47 PM 30.1061 -95.3511 90° East 259 298 7,000  Level Houston Center
Fri 08:53:47 PM 30.1061 -95.2742 92° East 253 291 7,000  Level Houston Center
Fri 08:54:47 PM 30.1042 -95.1950 90° East 247 284 7,000 -600 Level Houston Center
Fri 08:55:47 PM 30.1039 -95.1156 136° Southeast 247 284 5,800 -1,550 Descending Houston Center
Fri 08:56:47 PM 30.0614 -95.0686 196° South 203 234 3,900 -1,400 Descending Houston Center
Fri 08:57:47 PM 29.9961 -95.0906 266° West 189 217 3,000 -500 Descending Houston Center
Fri 08:58:47 PM 29.9922 -95.1622 266° West 150 173 2,900 -100 Descending Houston Center

Login

Don't have an account? Register now (free) for customized features, flight alerts, and more!